sensor_id;sensor_type;location;lat;lon;timestamp;P1;durP1;ratioP1;P2;durP2;ratioP2
74632;SDS011;63139;52.018;8.552;2023-04-04T00:00:45;8.25;;;4.03;;
74632;SDS011;63139;52.018;8.552;2023-04-04T00:03:12;6.93;;;4.10;;
74632;SDS011;63139;52.018;8.552;2023-04-04T00:05:40;10.27;;;4.22;;
74632;SDS011;63139;52.018;8.552;2023-04-04T00:08:10;10.68;;;4.10;;
74632;SDS011;63139;52.018;8.552;2023-04-04T00:10:37;5.63;;;3.53;;
74632;SDS011;63139;52.018;8.552;2023-04-04T00:13:06;6.90;;;3.97;;
74632;SDS011;63139;52.018;8.552;2023-04-04T00:15:34;5.30;;;2.80;;
74632;SDS011;63139;52.018;8.552;2023-04-04T00:18:02;5.93;;;3.35;;
74632;SDS011;63139;52.018;8.552;2023-04-04T00:20:30;9.30;;;3.90;;
74632;SDS011;63139;52.018;8.552;2023-04-04T00:22:58;7.63;;;3.42;;
74632;SDS011;63139;52.018;8.552;2023-04-04T00:25:27;7.32;;;3.40;;
74632;SDS011;63139;52.018;8.552;2023-04-04T00:27:55;9.13;;;3.58;;
74632;SDS011;63139;52.018;8.552;2023-04-04T00:30:26;7.75;;;3.50;;
74632;SDS011;63139;52.018;8.552;2023-04-04T00:32:54;5.00;;;3.00;;
74632;SDS011;63139;52.018;8.552;2023-04-04T00:35:22;6.47;;;2.60;;
74632;SDS011;63139;52.018;8.552;2023-04-04T00:37:50;4.32;;;2.92;;
74632;SDS011;63139;52.018;8.552;2023-04-04T00:40:18;5.97;;;3.13;;
74632;SDS011;63139;52.018;8.552;2023-04-04T00:42:47;5.43;;;3.08;;
74632;SDS011;63139;52.018;8.552;2023-04-04T00:45:15;7.47;;;3.38;;
74632;SDS011;63139;52.018;8.552;2023-04-04T00:47:43;5.93;;;3.10;;
74632;SDS011;63139;52.018;8.552;2023-04-04T00:50:13;5.88;;;3.42;;
74632;SDS011;63139;52.018;8.552;2023-04-04T00:52:42;6.95;;;3.35;;
74632;SDS011;63139;52.018;8.552;2023-04-04T00:55:10;7.32;;;3.72;;
74632;SDS011;63139;52.018;8.552;2023-04-04T00:57:37;6.07;;;2.90;;
74632;SDS011;63139;52.018;8.552;2023-04-04T01:00:08;5.15;;;2.85;;
74632;SDS011;63139;52.018;8.552;2023-04-04T01:02:36;5.65;;;2.95;;
74632;SDS011;63139;52.018;8.552;2023-04-04T01:05:05;7.85;;;3.72;;
74632;SDS011;63139;52.018;8.552;2023-04-04T01:07:34;5.95;;;2.88;;
74632;SDS011;63139;52.018;8.552;2023-04-04T01:10:04;5.97;;;3.30;;
74632;SDS011;63139;52.018;8.552;2023-04-04T01:12:33;6.15;;;2.90;;
74632;SDS011;63139;52.018;8.552;2023-04-04T01:15:01;7.47;;;3.10;;
74632;SDS011;63139;52.018;8.552;2023-04-04T01:17:31;7.10;;;3.60;;
74632;SDS011;63139;52.018;8.552;2023-04-04T01:19:59;7.13;;;3.05;;
74632;SDS011;63139;52.018;8.552;2023-04-04T01:22:39;5.95;;;2.88;;
74632;SDS011;63139;52.018;8.552;2023-04-04T01:25:08;4.85;;;2.90;;
74632;SDS011;63139;52.018;8.552;2023-04-04T01:27:42;6.47;;;3.30;;
74632;SDS011;63139;52.018;8.552;2023-04-04T01:30:13;5.25;;;3.00;;
74632;SDS011;63139;52.018;8.552;2023-04-04T01:32:43;4.88;;;2.40;;
74632;SDS011;63139;52.018;8.552;2023-04-04T01:35:17;6.43;;;3.28;;
74632;SDS011;63139;52.018;8.552;2023-04-04T01:37:53;5.00;;;2.88;;
74632;SDS011;63139;52.018;8.552;2023-04-04T01:40:27;4.60;;;2.65;;
74632;SDS011;63139;52.018;8.552;2023-04-04T01:43:01;6.55;;;2.83;;
74632;SDS011;63139;52.018;8.552;2023-04-04T01:45:31;5.07;;;2.85;;
74632;SDS011;63139;52.018;8.552;2023-04-04T01:48:05;5.35;;;3.03;;
74632;SDS011;63139;52.018;8.552;2023-04-04T01:50:33;6.93;;;3.00;;
74632;SDS011;63139;52.018;8.552;2023-04-04T01:53:01;6.32;;;2.55;;
74632;SDS011;63139;52.018;8.552;2023-04-04T01:55:29;5.38;;;2.75;;
74632;SDS011;63139;52.018;8.552;2023-04-04T01:57:57;4.72;;;3.00;;
74632;SDS011;63139;52.018;8.552;2023-04-04T02:00:27;7.43;;;2.72;;
74632;SDS011;63139;52.018;8.552;2023-04-04T02:02:54;5.18;;;2.35;;
74632;SDS011;63139;52.018;8.552;2023-04-04T02:05:22;3.22;;;2.10;;
74632;SDS011;63139;52.018;8.552;2023-04-04T02:07:50;3.47;;;2.28;;
74632;SDS011;63139;52.018;8.552;2023-04-04T02:10:27;3.97;;;2.40;;
74632;SDS011;63139;52.018;8.552;2023-04-04T02:12:56;3.67;;;2.20;;
74632;SDS011;63139;52.018;8.552;2023-04-04T02:15:25;3.35;;;2.35;;
74632;SDS011;63139;52.018;8.552;2023-04-04T02:17:54;4.68;;;2.63;;
74632;SDS011;63139;52.018;8.552;2023-04-04T02:20:22;4.60;;;2.58;;
74632;SDS011;63139;52.018;8.552;2023-04-04T02:22:50;4.30;;;2.33;;
74632;SDS011;63139;52.018;8.552;2023-04-04T02:25:19;4.93;;;2.38;;
74632;SDS011;63139;52.018;8.552;2023-04-04T02:27:47;4.00;;;2.58;;
74632;SDS011;63139;52.018;8.552;2023-04-04T02:30:15;5.28;;;2.45;;
74632;SDS011;63139;52.018;8.552;2023-04-04T02:32:44;5.43;;;3.13;;
74632;SDS011;63139;52.018;8.552;2023-04-04T02:35:15;4.30;;;2.60;;
74632;SDS011;63139;52.018;8.552;2023-04-04T02:37:44;9.70;;;2.60;;
74632;SDS011;63139;52.018;8.552;2023-04-04T02:40:19;3.80;;;2.40;;
74632;SDS011;63139;52.018;8.552;2023-04-04T02:42:47;5.85;;;2.55;;
74632;SDS011;63139;52.018;8.552;2023-04-04T02:45:15;5.88;;;2.60;;
74632;SDS011;63139;52.018;8.552;2023-04-04T02:47:53;4.78;;;2.67;;
74632;SDS011;63139;52.018;8.552;2023-04-04T02:50:26;7.28;;;2.55;;
74632;SDS011;63139;52.018;8.552;2023-04-04T02:52:58;7.68;;;2.58;;
74632;SDS011;63139;52.018;8.552;2023-04-04T02:55:30;5.57;;;2.67;;
74632;SDS011;63139;52.018;8.552;2023-04-04T02:57:58;6.68;;;2.65;;
74632;SDS011;63139;52.018;8.552;2023-04-04T03:00:27;7.45;;;2.72;;
74632;SDS011;63139;52.018;8.552;2023-04-04T03:02:56;5.05;;;2.60;;
74632;SDS011;63139;52.018;8.552;2023-04-04T03:05:30;4.97;;;2.65;;
74632;SDS011;63139;52.018;8.552;2023-04-04T03:07:59;4.57;;;2.08;;
74632;SDS011;63139;52.018;8.552;2023-04-04T03:10:27;8.10;;;3.30;;
74632;SDS011;63139;52.018;8.552;2023-04-04T03:12:56;4.30;;;3.00;;
74632;SDS011;63139;52.018;8.552;2023-04-04T03:15:25;7.15;;;2.60;;
74632;SDS011;63139;52.018;8.552;2023-04-04T03:17:53;4.15;;;2.35;;
74632;SDS011;63139;52.018;8.552;2023-04-04T03:20:26;5.63;;;3.30;;
74632;SDS011;63139;52.018;8.552;2023-04-04T03:22:53;4.85;;;2.75;;
74632;SDS011;63139;52.018;8.552;2023-04-04T03:25:23;5.95;;;3.50;;
74632;SDS011;63139;52.018;8.552;2023-04-04T03:27:50;9.18;;;3.42;;
74632;SDS011;63139;52.018;8.552;2023-04-04T03:30:21;6.97;;;2.80;;
74632;SDS011;63139;52.018;8.552;2023-04-04T03:32:49;6.25;;;3.20;;
74632;SDS011;63139;52.018;8.552;2023-04-04T03:35:17;5.63;;;3.05;;
74632;SDS011;63139;52.018;8.552;2023-04-04T03:37:46;6.13;;;3.10;;
74632;SDS011;63139;52.018;8.552;2023-04-04T03:40:14;6.38;;;2.97;;
74632;SDS011;63139;52.018;8.552;2023-04-04T03:42:42;7.68;;;2.80;;
74632;SDS011;63139;52.018;8.552;2023-04-04T03:45:12;5.05;;;2.67;;
74632;SDS011;63139;52.018;8.552;2023-04-04T03:47:41;5.28;;;3.20;;
74632;SDS011;63139;52.018;8.552;2023-04-04T03:50:09;5.93;;;2.83;;
74632;SDS011;63139;52.018;8.552;2023-04-04T03:52:44;4.72;;;2.63;;
74632;SDS011;63139;52.018;8.552;2023-04-04T03:55:14;5.47;;;2.53;;
74632;SDS011;63139;52.018;8.552;2023-04-04T03:57:41;5.35;;;2.55;;
74632;SDS011;63139;52.018;8.552;2023-04-04T04:00:12;14.77;;;3.13;;
74632;SDS011;63139;52.018;8.552;2023-04-04T04:02:42;7.30;;;3.33;;
74632;SDS011;63139;52.018;8.552;2023-04-04T04:05:10;6.07;;;2.72;;
74632;SDS011;63139;52.018;8.552;2023-04-04T04:07:38;5.55;;;3.05;;
74632;SDS011;63139;52.018;8.552;2023-04-04T04:10:09;10.25;;;3.00;;
74632;SDS011;63139;52.018;8.552;2023-04-04T04:12:38;6.30;;;2.72;;
74632;SDS011;63139;52.018;8.552;2023-04-04T04:15:07;6.63;;;3.15;;
74632;SDS011;63139;52.018;8.552;2023-04-04T04:17:37;6.95;;;3.08;;
74632;SDS011;63139;52.018;8.552;2023-04-04T04:20:06;5.15;;;3.10;;
74632;SDS011;63139;52.018;8.552;2023-04-04T04:22:43;8.73;;;3.45;;
74632;SDS011;63139;52.018;8.552;2023-04-04T04:25:12;7.38;;;3.53;;
74632;SDS011;63139;52.018;8.552;2023-04-04T04:27:44;10.00;;;4.00;;
74632;SDS011;63139;52.018;8.552;2023-04-04T04:30:12;8.10;;;3.83;;
74632;SDS011;63139;52.018;8.552;2023-04-04T04:32:43;6.30;;;3.13;;
74632;SDS011;63139;52.018;8.552;2023-04-04T04:35:12;9.85;;;3.67;;
74632;SDS011;63139;52.018;8.552;2023-04-04T04:37:41;9.25;;;3.33;;
74632;SDS011;63139;52.018;8.552;2023-04-04T04:40:10;7.72;;;3.70;;
74632;SDS011;63139;52.018;8.552;2023-04-04T04:42:50;6.70;;;3.60;;
74632;SDS011;63139;52.018;8.552;2023-04-04T04:45:21;6.85;;;3.85;;
74632;SDS011;63139;52.018;8.552;2023-04-04T04:47:59;7.60;;;3.90;;
74632;SDS011;63139;52.018;8.552;2023-04-04T04:50:28;7.68;;;3.88;;
74632;SDS011;63139;52.018;8.552;2023-04-04T04:52:56;8.15;;;4.05;;
74632;SDS011;63139;52.018;8.552;2023-04-04T04:55:24;9.20;;;4.50;;
74632;SDS011;63139;52.018;8.552;2023-04-04T04:58:06;6.70;;;3.42;;
74632;SDS011;63139;52.018;8.552;2023-04-04T05:00:34;8.25;;;2.97;;
74632;SDS011;63139;52.018;8.552;2023-04-04T05:03:05;9.00;;;3.70;;
74632;SDS011;63139;52.018;8.552;2023-04-04T05:05:38;10.00;;;3.40;;
74632;SDS011;63139;52.018;8.552;2023-04-04T05:08:10;8.02;;;3.63;;
74632;SDS011;63139;52.018;8.552;2023-04-04T05:10:48;8.02;;;3.53;;
74632;SDS011;63139;52.018;8.552;2023-04-04T05:13:20;9.55;;;4.07;;
74632;SDS011;63139;52.018;8.552;2023-04-04T05:15:48;6.85;;;3.35;;
74632;SDS011;63139;52.018;8.552;2023-04-04T05:18:16;9.57;;;4.88;;
74632;SDS011;63139;52.018;8.552;2023-04-04T05:20:49;10.48;;;4.10;;
74632;SDS011;63139;52.018;8.552;2023-04-04T05:23:18;9.43;;;4.35;;
74632;SDS011;63139;52.018;8.552;2023-04-04T05:25:47;7.78;;;4.10;;
74632;SDS011;63139;52.018;8.552;2023-04-04T05:28:16;7.13;;;3.42;;
74632;SDS011;63139;52.018;8.552;2023-04-04T05:30:45;7.32;;;3.47;;
74632;SDS011;63139;52.018;8.552;2023-04-04T05:33:19;8.98;;;3.85;;
74632;SDS011;63139;52.018;8.552;2023-04-04T05:35:59;10.35;;;4.15;;
74632;SDS011;63139;52.018;8.552;2023-04-04T05:38:29;10.27;;;4.20;;
74632;SDS011;63139;52.018;8.552;2023-04-04T05:40:58;13.70;;;5.22;;
74632;SDS011;63139;52.018;8.552;2023-04-04T05:43:26;8.50;;;3.97;;
74632;SDS011;63139;52.018;8.552;2023-04-04T05:46:08;12.07;;;5.55;;
74632;SDS011;63139;52.018;8.552;2023-04-04T05:48:42;9.75;;;4.50;;
74632;SDS011;63139;52.018;8.552;2023-04-04T05:51:11;7.15;;;4.07;;
74632;SDS011;63139;52.018;8.552;2023-04-04T05:53:48;12.60;;;4.93;;
74632;SDS011;63139;52.018;8.552;2023-04-04T05:56:22;9.68;;;4.95;;
74632;SDS011;63139;52.018;8.552;2023-04-04T05:58:52;9.20;;;4.07;;
74632;SDS011;63139;52.018;8.552;2023-04-04T06:01:22;10.32;;;4.65;;
74632;SDS011;63139;52.018;8.552;2023-04-04T06:03:53;7.78;;;3.97;;
74632;SDS011;63139;52.018;8.552;2023-04-04T06:06:24;11.15;;;5.05;;
74632;SDS011;63139;52.018;8.552;2023-04-04T06:08:52;9.45;;;4.13;;
74632;SDS011;63139;52.018;8.552;2023-04-04T06:11:21;9.30;;;4.75;;
74632;SDS011;63139;52.018;8.552;2023-04-04T06:13:51;11.80;;;5.07;;
74632;SDS011;63139;52.018;8.552;2023-04-04T06:16:20;8.95;;;3.88;;
74632;SDS011;63139;52.018;8.552;2023-04-04T06:18:50;6.90;;;3.65;;
74632;SDS011;63139;52.018;8.552;2023-04-04T06:21:18;7.90;;;3.88;;
74632;SDS011;63139;52.018;8.552;2023-04-04T06:23:45;8.65;;;3.80;;
74632;SDS011;63139;52.018;8.552;2023-04-04T06:26:13;10.13;;;4.25;;
74632;SDS011;63139;52.018;8.552;2023-04-04T06:28:46;9.27;;;4.28;;
74632;SDS011;63139;52.018;8.552;2023-04-04T06:31:23;8.82;;;4.82;;
74632;SDS011;63139;52.018;8.552;2023-04-04T06:33:56;10.18;;;4.45;;
74632;SDS011;63139;52.018;8.552;2023-04-04T06:36:23;10.27;;;4.30;;
74632;SDS011;63139;52.018;8.552;2023-04-04T06:38:51;8.90;;;4.43;;
74632;SDS011;63139;52.018;8.552;2023-04-04T06:41:20;9.73;;;5.13;;
74632;SDS011;63139;52.018;8.552;2023-04-04T06:43:51;9.77;;;4.90;;
74632;SDS011;63139;52.018;8.552;2023-04-04T06:46:18;11.15;;;4.82;;
74632;SDS011;63139;52.018;8.552;2023-04-04T06:48:46;6.50;;;4.28;;
74632;SDS011;63139;52.018;8.552;2023-04-04T06:51:16;12.20;;;5.13;;
74632;SDS011;63139;52.018;8.552;2023-04-04T06:53:45;8.38;;;4.32;;
74632;SDS011;63139;52.018;8.552;2023-04-04T06:56:13;9.70;;;4.32;;
74632;SDS011;63139;52.018;8.552;2023-04-04T06:58:41;7.05;;;4.25;;
74632;SDS011;63139;52.018;8.552;2023-04-04T07:01:09;6.85;;;3.85;;
74632;SDS011;63139;52.018;8.552;2023-04-04T07:03:37;9.85;;;4.32;;
74632;SDS011;63139;52.018;8.552;2023-04-04T07:06:04;8.00;;;4.40;;
74632;SDS011;63139;52.018;8.552;2023-04-04T07:08:33;7.65;;;4.38;;
74632;SDS011;63139;52.018;8.552;2023-04-04T07:11:02;8.15;;;4.75;;
74632;SDS011;63139;52.018;8.552;2023-04-04T07:13:31;8.20;;;3.90;;
74632;SDS011;63139;52.018;8.552;2023-04-04T07:16:00;6.82;;;3.85;;
74632;SDS011;63139;52.018;8.552;2023-04-04T07:18:28;7.45;;;3.38;;
74632;SDS011;63139;52.018;8.552;2023-04-04T07:20:56;4.35;;;3.00;;
74632;SDS011;63139;52.018;8.552;2023-04-04T07:23:24;10.57;;;3.70;;
74632;SDS011;63139;52.018;8.552;2023-04-04T07:25:55;9.43;;;3.60;;
74632;SDS011;63139;52.018;8.552;2023-04-04T07:28:26;6.85;;;3.35;;
74632;SDS011;63139;52.018;8.552;2023-04-04T07:30:54;3.65;;;2.80;;
74632;SDS011;63139;52.018;8.552;2023-04-04T07:33:26;5.93;;;3.38;;
74632;SDS011;63139;52.018;8.552;2023-04-04T07:35:53;5.53;;;3.35;;
74632;SDS011;63139;52.018;8.552;2023-04-04T07:38:21;6.22;;;3.53;;
74632;SDS011;63139;52.018;8.552;2023-04-04T07:40:49;12.02;;;3.83;;
74632;SDS011;63139;52.018;8.552;2023-04-04T07:43:18;6.50;;;3.50;;
74632;SDS011;63139;52.018;8.552;2023-04-04T07:45:46;6.38;;;3.33;;
74632;SDS011;63139;52.018;8.552;2023-04-04T07:48:14;6.25;;;3.20;;
74632;SDS011;63139;52.018;8.552;2023-04-04T07:50:42;7.97;;;3.20;;
74632;SDS011;63139;52.018;8.552;2023-04-04T07:53:09;6.95;;;3.17;;
74632;SDS011;63139;52.018;8.552;2023-04-04T07:55:37;7.43;;;3.20;;
74632;SDS011;63139;52.018;8.552;2023-04-04T07:58:05;8.13;;;3.55;;
74632;SDS011;63139;52.018;8.552;2023-04-04T08:00:34;6.43;;;3.30;;
74632;SDS011;63139;52.018;8.552;2023-04-04T08:03:02;11.30;;;3.17;;
74632;SDS011;63139;52.018;8.552;2023-04-04T08:05:30;5.15;;;2.60;;
74632;SDS011;63139;52.018;8.552;2023-04-04T08:07:58;3.42;;;2.38;;
74632;SDS011;63139;52.018;8.552;2023-04-04T08:10:26;8.50;;;3.30;;
74632;SDS011;63139;52.018;8.552;2023-04-04T08:12:53;6.13;;;2.90;;
74632;SDS011;63139;52.018;8.552;2023-04-04T08:15:21;6.20;;;3.10;;
74632;SDS011;63139;52.018;8.552;2023-04-04T08:17:50;5.47;;;3.10;;
74632;SDS011;63139;52.018;8.552;2023-04-04T08:20:18;7.70;;;3.15;;
74632;SDS011;63139;52.018;8.552;2023-04-04T08:22:46;8.77;;;2.80;;
74632;SDS011;63139;52.018;8.552;2023-04-04T08:25:14;4.80;;;2.75;;
74632;SDS011;63139;52.018;8.552;2023-04-04T08:27:42;4.10;;;2.80;;
74632;SDS011;63139;52.018;8.552;2023-04-04T08:30:11;4.22;;;2.53;;
74632;SDS011;63139;52.018;8.552;2023-04-04T08:32:40;4.97;;;2.63;;
74632;SDS011;63139;52.018;8.552;2023-04-04T08:35:10;4.88;;;2.33;;
74632;SDS011;63139;52.018;8.552;2023-04-04T08:37:42;5.70;;;2.55;;
74632;SDS011;63139;52.018;8.552;2023-04-04T08:40:10;4.68;;;2.50;;
74632;SDS011;63139;52.018;8.552;2023-04-04T08:42:39;4.10;;;2.17;;
74632;SDS011;63139;52.018;8.552;2023-04-04T08:45:08;3.55;;;2.00;;
74632;SDS011;63139;52.018;8.552;2023-04-04T08:47:38;3.97;;;1.85;;
74632;SDS011;63139;52.018;8.552;2023-04-04T08:50:08;6.75;;;2.60;;
74632;SDS011;63139;52.018;8.552;2023-04-04T08:52:37;3.22;;;1.58;;
74632;SDS011;63139;52.018;8.552;2023-04-04T08:55:07;2.75;;;1.40;;
74632;SDS011;63139;52.018;8.552;2023-04-04T08:57:35;4.47;;;1.67;;
74632;SDS011;63139;52.018;8.552;2023-04-04T09:00:04;3.28;;;1.60;;
74632;SDS011;63139;52.018;8.552;2023-04-04T09:02:33;3.67;;;1.60;;
74632;SDS011;63139;52.018;8.552;2023-04-04T09:05:06;2.83;;;1.70;;
74632;SDS011;63139;52.018;8.552;2023-04-04T09:07:37;6.30;;;2.03;;
74632;SDS011;63139;52.018;8.552;2023-04-04T09:10:06;4.38;;;2.10;;
74632;SDS011;63139;52.018;8.552;2023-04-04T09:12:36;7.10;;;1.67;;
74632;SDS011;63139;52.018;8.552;2023-04-04T09:15:06;4.60;;;1.90;;
74632;SDS011;63139;52.018;8.552;2023-04-04T09:17:35;4.57;;;1.80;;
74632;SDS011;63139;52.018;8.552;2023-04-04T09:20:11;6.28;;;1.70;;
74632;SDS011;63139;52.018;8.552;2023-04-04T09:23:06;6.28;;;1.70;;
74632;SDS011;63139;52.018;8.552;2023-04-04T09:25:36;6.75;;;1.98;;
74632;SDS011;63139;52.018;8.552;2023-04-04T09:28:04;4.10;;;1.98;;
74632;SDS011;63139;52.018;8.552;2023-04-04T09:30:32;3.92;;;1.70;;
74632;SDS011;63139;52.018;8.552;2023-04-04T09:33:01;2.90;;;1.83;;
74632;SDS011;63139;52.018;8.552;2023-04-04T09:35:31;4.32;;;2.00;;
74632;SDS011;63139;52.018;8.552;2023-04-04T09:38:01;3.10;;;1.80;;
74632;SDS011;63139;52.018;8.552;2023-04-04T09:40:30;4.93;;;2.00;;
74632;SDS011;63139;52.018;8.552;2023-04-04T09:42:58;3.47;;;1.77;;
74632;SDS011;63139;52.018;8.552;2023-04-04T09:45:28;5.40;;;1.90;;
74632;SDS011;63139;52.018;8.552;2023-04-04T09:47:57;8.48;;;2.22;;
74632;SDS011;63139;52.018;8.552;2023-04-04T09:50:26;3.20;;;1.73;;
74632;SDS011;63139;52.018;8.552;2023-04-04T09:52:55;6.03;;;1.83;;
74632;SDS011;63139;52.018;8.552;2023-04-04T09:55:33;5.68;;;2.28;;
74632;SDS011;63139;52.018;8.552;2023-04-04T09:58:10;6.25;;;2.20;;
74632;SDS011;63139;52.018;8.552;2023-04-04T10:00:39;2.88;;;1.85;;
74632;SDS011;63139;52.018;8.552;2023-04-04T10:03:10;3.30;;;1.65;;
74632;SDS011;63139;52.018;8.552;2023-04-04T10:05:39;4.10;;;1.92;;
74632;SDS011;63139;52.018;8.552;2023-04-04T10:08:14;4.50;;;2.67;;
74632;SDS011;63139;52.018;8.552;2023-04-04T10:10:48;4.20;;;2.05;;
74632;SDS011;63139;52.018;8.552;2023-04-04T10:13:33;4.38;;;1.98;;
74632;SDS011;63139;52.018;8.552;2023-04-04T10:16:02;4.18;;;2.20;;
74632;SDS011;63139;52.018;8.552;2023-04-04T10:18:31;11.35;;;2.72;;
74632;SDS011;63139;52.018;8.552;2023-04-04T10:21:01;5.10;;;2.45;;
74632;SDS011;63139;52.018;8.552;2023-04-04T10:23:41;9.82;;;2.53;;
74632;SDS011;63139;52.018;8.552;2023-04-04T10:26:13;3.28;;;2.17;;
74632;SDS011;63139;52.018;8.552;2023-04-04T10:28:41;7.30;;;2.10;;
74632;SDS011;63139;52.018;8.552;2023-04-04T10:31:15;5.50;;;2.45;;
74632;SDS011;63139;52.018;8.552;2023-04-04T10:33:48;4.00;;;2.05;;
74632;SDS011;63139;52.018;8.552;2023-04-04T10:36:23;4.03;;;1.90;;
74632;SDS011;63139;52.018;8.552;2023-04-04T10:38:58;4.85;;;1.90;;
74632;SDS011;63139;52.018;8.552;2023-04-04T10:41:32;8.20;;;2.13;;
74632;SDS011;63139;52.018;8.552;2023-04-04T10:44:14;3.40;;;2.10;;
74632;SDS011;63139;52.018;8.552;2023-04-04T10:46:47;5.85;;;2.40;;
74632;SDS011;63139;52.018;8.552;2023-04-04T10:49:19;4.68;;;2.20;;
74632;SDS011;63139;52.018;8.552;2023-04-04T10:51:49;3.40;;;1.90;;
74632;SDS011;63139;52.018;8.552;2023-04-04T10:54:22;3.03;;;1.80;;
74632;SDS011;63139;52.018;8.552;2023-04-04T10:56:53;4.13;;;2.10;;
74632;SDS011;63139;52.018;8.552;2023-04-04T10:59:22;3.40;;;2.17;;
74632;SDS011;63139;52.018;8.552;2023-04-04T11:01:54;3.58;;;2.08;;
74632;SDS011;63139;52.018;8.552;2023-04-04T11:04:30;4.07;;;2.03;;
74632;SDS011;63139;52.018;8.552;2023-04-04T11:07:09;5.13;;;2.33;;
74632;SDS011;63139;52.018;8.552;2023-04-04T11:09:46;3.47;;;2.00;;
74632;SDS011;63139;52.018;8.552;2023-04-04T11:12:17;2.92;;;1.85;;
74632;SDS011;63139;52.018;8.552;2023-04-04T11:17:43;5.47;;;1.90;;
74632;SDS011;63139;52.018;8.552;2023-04-04T11:20:31;4.18;;;1.77;;
74632;SDS011;63139;52.018;8.552;2023-04-04T11:23:01;2.33;;;1.80;;
74632;SDS011;63139;52.018;8.552;2023-04-04T11:25:31;8.25;;;2.40;;
74632;SDS011;63139;52.018;8.552;2023-04-04T11:28:05;2.92;;;1.98;;
74632;SDS011;63139;52.018;8.552;2023-04-04T11:30:37;3.92;;;1.90;;
74632;SDS011;63139;52.018;8.552;2023-04-04T11:33:10;5.43;;;2.00;;
74632;SDS011;63139;52.018;8.552;2023-04-04T11:35:39;5.32;;;2.03;;
74632;SDS011;63139;52.018;8.552;2023-04-04T11:38:14;3.20;;;2.00;;
74632;SDS011;63139;52.018;8.552;2023-04-04T11:40:53;3.33;;;1.83;;
74632;SDS011;63139;52.018;8.552;2023-04-04T11:43:22;3.85;;;2.05;;
74632;SDS011;63139;52.018;8.552;2023-04-04T11:45:55;3.63;;;1.70;;
74632;SDS011;63139;52.018;8.552;2023-04-04T11:48:33;2.88;;;1.70;;
74632;SDS011;63139;52.018;8.552;2023-04-04T11:51:01;3.50;;;1.92;;
74632;SDS011;63139;52.018;8.552;2023-04-04T11:53:30;2.65;;;1.50;;
74632;SDS011;63139;52.018;8.552;2023-04-04T11:55:58;3.92;;;1.77;;
74632;SDS011;63139;52.018;8.552;2023-04-04T11:58:28;3.08;;;2.00;;
74632;SDS011;63139;52.018;8.552;2023-04-04T12:00:55;5.03;;;2.00;;
74632;SDS011;63139;52.018;8.552;2023-04-04T12:03:23;3.33;;;1.83;;
74632;SDS011;63139;52.018;8.552;2023-04-04T12:05:55;5.38;;;1.85;;
74632;SDS011;63139;52.018;8.552;2023-04-04T12:08:23;4.20;;;1.80;;
74632;SDS011;63139;52.018;8.552;2023-04-04T12:10:52;3.58;;;1.90;;
74632;SDS011;63139;52.018;8.552;2023-04-04T12:13:19;3.03;;;1.80;;
74632;SDS011;63139;52.018;8.552;2023-04-04T12:15:49;5.25;;;1.85;;
74632;SDS011;63139;52.018;8.552;2023-04-04T12:18:19;4.35;;;1.95;;
74632;SDS011;63139;52.018;8.552;2023-04-04T12:20:49;3.28;;;1.80;;
74632;SDS011;63139;52.018;8.552;2023-04-04T12:23:17;5.82;;;2.00;;
74632;SDS011;63139;52.018;8.552;2023-04-04T12:25:46;2.88;;;1.60;;
74632;SDS011;63139;52.018;8.552;2023-04-04T12:28:18;4.30;;;2.28;;
74632;SDS011;63139;52.018;8.552;2023-04-04T12:30:48;2.70;;;1.70;;
74632;SDS011;63139;52.018;8.552;2023-04-04T12:33:16;3.67;;;1.90;;
74632;SDS011;63139;52.018;8.552;2023-04-04T12:35:49;4.35;;;1.95;;
74632;SDS011;63139;52.018;8.552;2023-04-04T12:38:18;3.95;;;1.83;;
74632;SDS011;63139;52.018;8.552;2023-04-04T12:40:46;2.97;;;2.03;;
74632;SDS011;63139;52.018;8.552;2023-04-04T12:43:15;3.95;;;1.95;;
74632;SDS011;63139;52.018;8.552;2023-04-04T12:45:43;3.38;;;2.00;;
74632;SDS011;63139;52.018;8.552;2023-04-04T12:48:13;2.88;;;2.20;;
74632;SDS011;63139;52.018;8.552;2023-04-04T12:50:50;3.78;;;2.30;;
74632;SDS011;63139;52.018;8.552;2023-04-04T12:53:20;4.07;;;2.20;;
74632;SDS011;63139;52.018;8.552;2023-04-04T12:55:51;3.85;;;2.30;;
74632;SDS011;63139;52.018;8.552;2023-04-04T12:58:21;5.68;;;2.20;;
74632;SDS011;63139;52.018;8.552;2023-04-04T13:00:51;7.05;;;2.58;;
74632;SDS011;63139;52.018;8.552;2023-04-04T13:03:22;3.83;;;2.10;;
74632;SDS011;63139;52.018;8.552;2023-04-04T13:05:50;4.25;;;2.35;;
74632;SDS011;63139;52.018;8.552;2023-04-04T13:08:18;5.88;;;2.60;;
74632;SDS011;63139;52.018;8.552;2023-04-04T13:10:57;2.60;;;2.10;;
74632;SDS011;63139;52.018;8.552;2023-04-04T13:13:31;4.65;;;2.63;;
74632;SDS011;63139;52.018;8.552;2023-04-04T13:16:03;3.45;;;2.50;;
74632;SDS011;63139;52.018;8.552;2023-04-04T13:18:35;4.43;;;2.40;;
74632;SDS011;63139;52.018;8.552;2023-04-04T13:21:04;4.20;;;2.42;;
74632;SDS011;63139;52.018;8.552;2023-04-04T13:23:33;3.75;;;2.47;;
74632;SDS011;63139;52.018;8.552;2023-04-04T13:26:03;7.60;;;2.78;;
74632;SDS011;63139;52.018;8.552;2023-04-04T13:28:31;5.10;;;2.40;;
74632;SDS011;63139;52.018;8.552;2023-04-04T13:31:00;4.97;;;2.38;;
74632;SDS011;63139;52.018;8.552;2023-04-04T13:33:29;7.18;;;2.53;;
74632;SDS011;63139;52.018;8.552;2023-04-04T13:35:58;7.70;;;2.92;;
74632;SDS011;63139;52.018;8.552;2023-04-04T13:38:27;5.43;;;2.35;;
74632;SDS011;63139;52.018;8.552;2023-04-04T13:40:56;5.00;;;2.67;;
74632;SDS011;63139;52.018;8.552;2023-04-04T13:43:24;8.52;;;2.85;;
74632;SDS011;63139;52.018;8.552;2023-04-04T13:45:52;4.97;;;2.53;;
74632;SDS011;63139;52.018;8.552;2023-04-04T13:48:21;5.22;;;2.58;;
74632;SDS011;63139;52.018;8.552;2023-04-04T13:50:49;4.25;;;2.42;;
74632;SDS011;63139;52.018;8.552;2023-04-04T13:53:19;4.10;;;2.30;;
74632;SDS011;63139;52.018;8.552;2023-04-04T13:55:47;4.43;;;2.15;;
74632;SDS011;63139;52.018;8.552;2023-04-04T13:58:35;5.28;;;2.25;;
74632;SDS011;63139;52.018;8.552;2023-04-04T14:01:03;4.20;;;2.80;;
74632;SDS011;63139;52.018;8.552;2023-04-04T14:03:32;6.00;;;2.47;;
74632;SDS011;63139;52.018;8.552;2023-04-04T14:05:59;4.55;;;2.30;;
74632;SDS011;63139;52.018;8.552;2023-04-04T14:08:49;5.03;;;2.47;;
74632;SDS011;63139;52.018;8.552;2023-04-04T14:11:17;4.05;;;2.63;;
74632;SDS011;63139;52.018;8.552;2023-04-04T14:13:45;3.67;;;2.33;;
74632;SDS011;63139;52.018;8.552;2023-04-04T14:16:13;4.15;;;2.20;;
74632;SDS011;63139;52.018;8.552;2023-04-04T14:18:41;3.85;;;2.38;;
74632;SDS011;63139;52.018;8.552;2023-04-04T14:21:09;6.82;;;2.40;;
74632;SDS011;63139;52.018;8.552;2023-04-04T14:23:37;8.00;;;2.40;;
74632;SDS011;63139;52.018;8.552;2023-04-04T14:26:06;4.70;;;2.45;;
74632;SDS011;63139;52.018;8.552;2023-04-04T14:28:34;6.10;;;2.40;;
74632;SDS011;63139;52.018;8.552;2023-04-04T14:31:03;4.75;;;2.60;;
74632;SDS011;63139;52.018;8.552;2023-04-04T14:33:31;7.28;;;2.10;;
74632;SDS011;63139;52.018;8.552;2023-04-04T14:35:59;4.68;;;2.40;;
74632;SDS011;63139;52.018;8.552;2023-04-04T14:38:26;5.97;;;2.28;;
74632;SDS011;63139;52.018;8.552;2023-04-04T14:40:54;3.78;;;2.20;;
74632;SDS011;63139;52.018;8.552;2023-04-04T14:43:24;2.78;;;1.80;;
74632;SDS011;63139;52.018;8.552;2023-04-04T14:45:51;3.55;;;1.80;;
74632;SDS011;63139;52.018;8.552;2023-04-04T14:48:19;2.90;;;1.80;;
74632;SDS011;63139;52.018;8.552;2023-04-04T14:50:47;3.75;;;2.22;;
74632;SDS011;63139;52.018;8.552;2023-04-04T14:53:15;3.20;;;2.20;;
74632;SDS011;63139;52.018;8.552;2023-04-04T14:55:43;4.88;;;2.40;;
74632;SDS011;63139;52.018;8.552;2023-04-04T14:58:11;5.38;;;2.40;;
74632;SDS011;63139;52.018;8.552;2023-04-04T15:00:40;3.83;;;2.08;;
74632;SDS011;63139;52.018;8.552;2023-04-04T15:03:08;2.55;;;2.10;;
74632;SDS011;63139;52.018;8.552;2023-04-04T15:05:36;6.22;;;2.25;;
74632;SDS011;63139;52.018;8.552;2023-04-04T15:08:04;4.32;;;2.17;;